TimeCST,TemperatureF,Dew PointF,Humidity,Sea Level PressureIn,VisibilityMPH,Wind Direction,Wind SpeedMPH,Gust SpeedMPH,PrecipitationIn,Events,Conditions,WindDirDegrees,DateUTC
12:53 AM,64.9,55.0,70,29.86,10.0,SSE,18.4,26.5,N/A,,Mostly Cloudy,160,2012-11-11 06:53:00
1:53 AM,66.0,55.0,68,29.88,10.0,South,16.1,29.9,N/A,,Overcast,180,2012-11-11 07:53:00
2:53 AM,64.9,55.0,70,29.86,10.0,SSE,13.8,20.7,N/A,,Overcast,150,2012-11-11 08:53:00
3:02 AM,64.4,55.4,73,29.89,10.0,SSE,16.1,23.0,N/A,,Overcast,150,2012-11-11 09:02:00
3:53 AM,64.0,55.9,75,29.85,10.0,SSE,21.9,26.5,N/A,,Overcast,160,2012-11-11 09:53:00
4:53 AM,64.0,55.0,73,29.86,10.0,South,11.5,20.7,N/A,,Overcast,170,2012-11-11 10:53:00
5:53 AM,64.0,55.9,75,29.88,10.0,SSE,12.7,20.7,N/A,,Overcast,160,2012-11-11 11:53:00
6:53 AM,64.0,55.9,75,29.87,10.0,SSE,12.7,23.0,N/A,,Overcast,160,2012-11-11 12:53:00
7:53 AM,64.9,55.9,73,29.89,10.0,SSE,13.8,20.7,N/A,,Overcast,160,2012-11-11 13:53:00
8:18 AM,64.4,57.2,77,29.91,10.0,SSE,16.1,-,0.00,,Overcast,160,2012-11-11 14:18:00
8:28 AM,64.4,57.2,77,29.91,10.0,SSE,20.7,26.5,0.00,,Overcast,160,2012-11-11 14:28:00
8:53 AM,64.4,57.2,77,29.91,10.0,South,13.8,-,N/A,,Overcast,170,2012-11-11 14:53:00
9:53 AM,66.0,57.9,75,29.85,10.0,South,24.2,31.1,N/A,,Overcast,170,2012-11-11 15:53:00
10:53 AM,66.2,57.2,73,29.86,10.0,South,20.7,27.6,N/A,,Overcast,170,2012-11-11 16:53:00
12:43 PM,53.6,50.0,88,29.88,9.0,WNW,15.0,24.2,0.01,Rain,Rain,290,2012-11-11 18:43:00
12:50 PM,51.8,48.2,88,29.87,1.8,NW,17.3,26.5,0.09,Rain,Heavy Rain,310,2012-11-11 18:50:00
12:53 PM,51.1,48.9,92,29.86,1.0,NW,17.3,26.5,0.12,Rain,Heavy Rain,310,2012-11-11 18:53:00
1:11 PM,51.8,48.2,88,29.91,3.0,WNW,13.8,21.9,0.09,Rain,Rain,300,2012-11-11 19:11:00
1:23 PM,50.0,48.2,94,29.90,2.0,NW,12.7,24.2,0.12,Rain,Heavy Rain,310,2012-11-11 19:23:00
1:31 PM,50.0,48.2,94,29.90,3.0,NW,12.7,23.0,0.12,Rain,Light Rain,310,2012-11-11 19:31:00
1:53 PM,50.0,48.9,96,29.91,3.0,WNW,10.4,-,0.14,Rain,Rain,300,2012-11-11 19:53:00
1:57 PM,50.0,48.2,94,29.92,1.8,NW,11.5,-,0.05,Rain,Heavy Rain,310,2012-11-11 19:57:00
2:08 PM,50.0,48.2,94,29.91,3.0,NW,11.5,-,0.07,Rain,Light Rain,310,2012-11-11 20:08:00
2:18 PM,50.0,48.2,94,29.91,10.0,NW,11.5,-,0.07,Rain,Light Rain,320,2012-11-11 20:18:00
2:30 PM,50.0,48.2,94,29.91,6.0,NW,9.2,-,0.09,Rain,Light Rain,320,2012-11-11 20:30:00
2:46 PM,50.0,48.2,94,29.94,2.5,WNW,9.2,17.3,0.14,Rain,Heavy Rain,300,2012-11-11 20:46:00
2:53 PM,50.0,48.0,93,29.93,2.0,WNW,10.4,-,0.18,Rain,Heavy Rain,290,2012-11-11 20:53:00
2:57 PM,48.2,48.2,100,29.94,1.8,WNW,8.1,16.1,0.02,Rain,Heavy Rain,300,2012-11-11 20:57:00
3:06 PM,48.2,46.4,93,29.94,2.0,WNW,10.4,16.1,0.05,Rain,Heavy Rain,300,2012-11-11 21:06:00
3:11 PM,48.2,46.4,93,29.94,3.0,NW,9.2,-,0.06,Rain,Rain,310,2012-11-11 21:11:00
3:20 PM,48.2,48.2,100,29.94,4.0,WNW,9.2,-,0.07,Rain,Rain,300,2012-11-11 21:20:00
3:53 PM,48.9,46.9,93,29.95,5.0,WNW,4.6,-,0.08,Rain,Light Rain,300,2012-11-11 21:53:00
4:53 PM,48.9,48.0,97,29.97,8.0,South,3.5,-,0.04,Rain,Light Rain,180,2012-11-11 22:53:00
5:38 PM,48.2,48.2,100,29.99,7.0,Calm,Calm,-,0.05,Rain,Light Rain,0,2012-11-11 23:38:00
5:53 PM,48.9,46.9,93,29.98,6.0,SE,3.5,-,0.08,Rain,Rain,140,2012-11-11 23:53:00
6:53 PM,48.9,48.0,97,30.01,7.0,Calm,Calm,-,0.09,Rain,Rain,0,2012-11-12 00:53:00
7:25 PM,44.6,44.6,100,30.02,10.0,NNW,16.1,21.9,0.01,Rain,Light Rain,330,2012-11-12 01:25:00
7:53 PM,42.1,41.0,96,30.06,10.0,WNW,12.7,19.6,0.01,Rain,Light Rain,300,2012-11-12 01:53:00
8:08 PM,41.0,39.2,93,30.07,7.0,WNW,9.2,18.4,0.00,,Overcast,300,2012-11-12 02:08:00
8:32 PM,39.2,39.2,100,30.08,2.5,West,9.2,17.3,0.00,,Overcast,280,2012-11-12 02:32:00
8:43 PM,39.2,39.2,100,30.10,4.0,West,9.2,16.1,0.00,Rain,Light Rain,280,2012-11-12 02:43:00
8:53 PM,39.0,37.9,96,30.11,5.0,WNW,9.2,18.4,0.00,,Overcast,300,2012-11-12 02:53:00
9:53 PM,37.0,36.0,96,30.13,6.0,NW,12.7,20.7,N/A,,Overcast,320,2012-11-12 03:53:00
10:22 PM,35.6,35.6,100,30.15,6.0,WNW,11.5,18.4,N/A,,Overcast,300,2012-11-12 04:22:00
10:53 PM,35.1,34.0,96,30.16,6.0,NNW,15.0,19.6,N/A,,Overcast,330,2012-11-12 04:53:00
11:53 PM,34.0,32.0,92,30.20,10.0,WNW,8.1,18.4,N/A,,Overcast,300,2012-11-12 05:53:00